Capitol Logistics 7472

Operating for MZN



KABE
Lehigh Valley International Airport
Allentown, Pennsylvania
KCLT
Charlotte/Douglas International Airport
Charlotte, North Carolina

Activity Log

Date Flight Route Aircraft Duration
04/19/2021 CPX7472 ETX LRP EMI J48 MOL LYH CHSLY4 B738 1h 31m

Route Details

Aircraft Information
Primary: Boeing 737-800BCF
Backup: Boeing 757-200SF
Route Data
Distance: 418nm
Duration: 1h 41m
Recm'd Route: ETX LRP EMI J48 MOL LYH CHSLY4
Origin Wx: KABE 020651Z 26003KT 10SM CLR 13/13 A2989 RMK AO2 SLP121 T01330128 $
Dest. Wx: KCLT 020552Z 33006KT 9SM CLR 23/18 A2997 RMK AO2 SLP136 T02280183 10272 20217 51006
Notes: